CNS12 KPSM-KISP
Flight info
| Callsign | CNS12 |
|---|---|
| Flight time | 1h 15m |
| Altitude | 28000 |
| Route | WEEZE SCUPP LFV SEY ARCAV ORCHA CCC |
| Aircraft | PC12/L-SDFGRWY/S |
Departure
| Time | 2026-04-24 20:23 |
|---|---|
| Airport | Portsmouth International Airport at Pease (KPSM) |
Arrival
| Time | 2026-04-24 21:38 |
|---|---|
| Airport | Long Island MacArthur Airport (KISP) |
| Time | Latitude | Longitude | Altitude | Speed | Heading |
|---|---|---|---|---|---|
| 2026-04-24 20:10 | 43.08259 | -70.81979 | 88 ft | 0 kts | 152° |
| 2026-04-24 20:20 | 43.08256 | -70.81977 | 88 ft | 2 kts | 152° |
| 2026-04-24 20:20 | 43.08221 | -70.81963 | 90 ft | 8 kts | 195° |
| 2026-04-24 20:20 | 43.08180 | -70.82039 | 89 ft | 12 kts | 239° |
| 2026-04-24 20:20 | 43.08148 | -70.82159 | 88 ft | 16 kts | 300° |
| 2026-04-24 20:21 | 43.08256 | -70.82240 | 88 ft | 20 kts | 324° |
| 2026-04-24 20:21 | 43.08378 | -70.82343 | 90 ft | 20 kts | 330° |
| 2026-04-24 20:21 | 43.08376 | -70.82525 | 90 ft | 22 kts | 238° |
| 2026-04-24 20:21 | 43.08285 | -70.82688 | 93 ft | 20 kts | 193° |
| 2026-04-24 20:22 | 43.08137 | -70.82607 | 90 ft | 42 kts | 149° |
| 2026-04-24 20:22 | 43.07739 | -70.82291 | 116 ft | 84 kts | 149° |
| 2026-04-24 20:22 | 43.07202 | -70.81858 | 365 ft | 93 kts | 149° |
| 2026-04-24 20:22 | 43.06600 | -70.81393 | 696 ft | 105 kts | 149° |
| 2026-04-24 20:23 | 43.05873 | -70.80843 | 946 ft | 134 kts | 152° |
| 2026-04-24 20:23 | 43.04999 | -70.80216 | 1445 ft | 146 kts | 152° |
| 2026-04-24 20:23 | 43.04066 | -70.79556 | 2012 ft | 155 kts | 152° |
| 2026-04-24 20:23 | 43.03106 | -70.78864 | 2637 ft | 158 kts | 149° |
| 2026-04-24 20:24 | 43.02114 | -70.78090 | 3095 ft | 172 kts | 148° |
| 2026-04-24 20:24 | 43.01113 | -70.77235 | 3712 ft | 172 kts | 145° |
| 2026-04-24 20:24 | 43.00147 | -70.76229 | 4357 ft | 176 kts | 135° |
| 2026-04-24 20:24 | 42.99257 | -70.75059 | 5032 ft | 179 kts | 133° |
| 2026-04-24 20:25 | 42.98297 | -70.73746 | 5143 ft | 212 kts | 133° |
| 2026-04-24 20:25 | 42.97201 | -70.72239 | 5263 ft | 230 kts | 133° |
| 2026-04-24 20:25 | 42.96049 | -70.70664 | 5504 ft | 238 kts | 134° |
| 2026-04-24 20:25 | 42.94860 | -70.69058 | 5742 ft | 244 kts | 135° |
| 2026-04-24 20:26 | 42.93612 | -70.67457 | 5986 ft | 248 kts | 136° |
| 2026-04-24 20:26 | 42.92341 | -70.65855 | 6228 ft | 250 kts | 136° |
| 2026-04-24 20:26 | 42.91209 | -70.64066 | 6459 ft | 249 kts | 120° |
| 2026-04-24 20:26 | 42.90535 | -70.61903 | 6682 ft | 246 kts | 100° |
| 2026-04-24 20:27 | 42.90322 | -70.59639 | 6952 ft | 238 kts | 90° |
| 2026-04-24 20:27 | 42.90085 | -70.57416 | 7259 ft | 237 kts | 98° |
| 2026-04-24 20:27 | 42.89617 | -70.55260 | 7570 ft | 237 kts | 105° |
| 2026-04-24 20:27 | 42.89083 | -70.53142 | 7903 ft | 236 kts | 103° |
| 2026-04-24 20:28 | 42.88587 | -70.51010 | 8223 ft | 235 kts | 102° |
| 2026-04-24 20:28 | 42.88120 | -70.48910 | 8539 ft | 234 kts | 101° |
| 2026-04-24 20:28 | 42.87644 | -70.46786 | 8862 ft | 234 kts | 101° |
| 2026-04-24 20:28 | 42.87162 | -70.44668 | 9192 ft | 234 kts | 101° |
| 2026-04-24 20:29 | 42.86841 | -70.43263 | 9415 ft | 234 kts | 101° |
| 2026-04-24 20:29 | 42.86195 | -70.40421 | 9813 ft | 236 kts | 101° |
| 2026-04-24 20:29 | 42.85705 | -70.38265 | 10035 ft | 240 kts | 101° |
| 2026-04-24 20:29 | 42.85069 | -70.36138 | 10254 ft | 247 kts | 115° |
| 2026-04-24 20:30 | 42.83976 | -70.34285 | 10474 ft | 255 kts | 134° |
| 2026-04-24 20:30 | 42.82500 | -70.32910 | 10695 ft | 260 kts | 153° |
| 2026-04-24 20:30 | 42.80773 | -70.32146 | 10920 ft | 261 kts | 170° |
| 2026-04-24 20:30 | 42.79014 | -70.31643 | 11135 ft | 263 kts | 167° |
| 2026-04-24 20:31 | 42.77258 | -70.30917 | 11373 ft | 264 kts | 161° |
| 2026-04-24 20:31 | 42.75524 | -70.30053 | 11610 ft | 266 kts | 160° |
| 2026-04-24 20:31 | 42.73775 | -70.29212 | 11831 ft | 267 kts | 161° |
| 2026-04-24 20:31 | 42.72007 | -70.28409 | 12073 ft | 269 kts | 162° |
| 2026-04-24 20:32 | 42.70225 | -70.27600 | 12309 ft | 270 kts | 162° |
| 2026-04-24 20:32 | 42.68440 | -70.26777 | 12538 ft | 271 kts | 162° |
| 2026-04-24 20:32 | 42.66650 | -70.25949 | 12773 ft | 272 kts | 162° |
| 2026-04-24 20:32 | 42.64852 | -70.25121 | 13016 ft | 274 kts | 162° |
| 2026-04-24 20:33 | 42.63042 | -70.24290 | 13258 ft | 275 kts | 162° |
| 2026-04-24 20:33 | 42.61229 | -70.23458 | 13502 ft | 276 kts | 162° |
| 2026-04-24 20:33 | 42.59390 | -70.22714 | 13741 ft | 275 kts | 168° |
| 2026-04-24 20:33 | 42.57524 | -70.22101 | 13957 ft | 277 kts | 169° |
| 2026-04-24 20:34 | 42.55649 | -70.21487 | 14175 ft | 278 kts | 168° |
| 2026-04-24 20:34 | 42.53765 | -70.20860 | 14390 ft | 279 kts | 168° |
| 2026-04-24 20:34 | 42.51877 | -70.20230 | 14606 ft | 280 kts | 169° |
| 2026-04-24 20:34 | 42.50003 | -70.19609 | 14839 ft | 282 kts | 169° |
| 2026-04-24 20:35 | 42.48091 | -70.18975 | 15022 ft | 283 kts | 169° |
| 2026-04-24 20:35 | 42.46173 | -70.18340 | 15220 ft | 284 kts | 169° |
| 2026-04-24 20:35 | 42.44247 | -70.17703 | 15419 ft | 285 kts | 169° |
| 2026-04-24 20:35 | 42.42316 | -70.17065 | 15621 ft | 286 kts | 170° |
| 2026-04-24 20:36 | 42.40380 | -70.16424 | 15822 ft | 287 kts | 170° |
| 2026-04-24 20:36 | 42.38434 | -70.15780 | 16026 ft | 288 kts | 170° |
| 2026-04-24 20:36 | 42.36485 | -70.15137 | 16231 ft | 288 kts | 170° |
| 2026-04-24 20:36 | 42.34556 | -70.14500 | 16434 ft | 289 kts | 170° |
| 2026-04-24 20:37 | 42.32597 | -70.13854 | 16636 ft | 290 kts | 170° |
| 2026-04-24 20:37 | 42.30636 | -70.13207 | 16844 ft | 291 kts | 170° |
| 2026-04-24 20:37 | 42.28670 | -70.12559 | 17054 ft | 291 kts | 170° |
| 2026-04-24 20:37 | 42.26698 | -70.11910 | 17246 ft | 292 kts | 171° |
| 2026-04-24 20:38 | 42.24720 | -70.11260 | 17454 ft | 293 kts | 171° |
| 2026-04-24 20:38 | 42.22731 | -70.10606 | 17641 ft | 295 kts | 171° |
| 2026-04-24 20:38 | 42.20731 | -70.09948 | 17829 ft | 296 kts | 171° |
| 2026-04-24 20:38 | 42.18725 | -70.09289 | 18029 ft | 298 kts | 171° |
| 2026-04-24 20:39 | 42.16708 | -70.08627 | 18218 ft | 299 kts | 171° |
| 2026-04-24 20:39 | 42.14686 | -70.07964 | 18387 ft | 299 kts | 171° |
| 2026-04-24 20:39 | 42.12658 | -70.07299 | 18551 ft | 300 kts | 172° |
| 2026-04-24 20:39 | 42.10625 | -70.06633 | 18716 ft | 301 kts | 172° |
| 2026-04-24 20:40 | 42.08590 | -70.05967 | 18885 ft | 301 kts | 172° |
| 2026-04-24 20:40 | 42.06546 | -70.05322 | 19049 ft | 299 kts | 175° |
| 2026-04-24 20:40 | 42.04500 | -70.05160 | 19192 ft | 290 kts | 194° |
| 2026-04-24 20:40 | 42.02571 | -70.05677 | 19359 ft | 276 kts | 211° |
| 2026-04-24 20:41 | 42.00875 | -70.06735 | 19529 ft | 262 kts | 225° |
| 2026-04-24 20:41 | 41.99465 | -70.08186 | 19697 ft | 248 kts | 239° |
| 2026-04-24 20:41 | 41.98371 | -70.09894 | 19867 ft | 235 kts | 250° |
| 2026-04-24 20:41 | 41.97417 | -70.11701 | 19944 ft | 240 kts | 250° |
| 2026-04-24 20:42 | 41.96429 | -70.13548 | 19944 ft | 246 kts | 249° |
| 2026-04-24 20:42 | 41.95421 | -70.15403 | 19945 ft | 251 kts | 249° |
| 2026-04-24 20:42 | 41.94385 | -70.17309 | 19946 ft | 254 kts | 249° |
| 2026-04-24 20:42 | 41.93343 | -70.19234 | 19946 ft | 256 kts | 248° |
| 2026-04-24 20:43 | 41.92292 | -70.21175 | 19935 ft | 256 kts | 248° |
| 2026-04-24 20:43 | 41.91239 | -70.23119 | 19940 ft | 258 kts | 248° |
| 2026-04-24 20:43 | 41.90181 | -70.25072 | 19939 ft | 259 kts | 248° |
| 2026-04-24 20:43 | 41.89120 | -70.27026 | 19939 ft | 259 kts | 248° |
| 2026-04-24 20:44 | 41.88057 | -70.28985 | 19941 ft | 259 kts | 248° |
| 2026-04-24 20:44 | 41.86993 | -70.30945 | 19915 ft | 259 kts | 248° |
| 2026-04-24 20:44 | 41.85930 | -70.32902 | 19922 ft | 260 kts | 248° |
| 2026-04-24 20:44 | 41.84878 | -70.34835 | 19921 ft | 260 kts | 248° |
| 2026-04-24 20:45 | 41.83813 | -70.36794 | 19919 ft | 260 kts | 248° |
| 2026-04-24 20:45 | 41.82745 | -70.38756 | 19919 ft | 260 kts | 248° |
| 2026-04-24 20:45 | 41.81680 | -70.40710 | 19920 ft | 260 kts | 248° |
| 2026-04-24 20:45 | 41.80613 | -70.42667 | 19917 ft | 260 kts | 248° |
| 2026-04-24 20:46 | 41.79544 | -70.44628 | 19920 ft | 260 kts | 248° |
| 2026-04-24 20:46 | 41.78473 | -70.46589 | 19920 ft | 261 kts | 248° |
| 2026-04-24 20:46 | 41.77402 | -70.48551 | 19919 ft | 261 kts | 248° |
| 2026-04-24 20:46 | 41.76327 | -70.50517 | 19921 ft | 261 kts | 248° |
| 2026-04-24 20:47 | 41.75252 | -70.52483 | 19919 ft | 261 kts | 248° |
| 2026-04-24 20:47 | 41.74180 | -70.54441 | 19901 ft | 260 kts | 246° |
| 2026-04-24 20:47 | 41.73108 | -70.56397 | 19918 ft | 260 kts | 246° |
| 2026-04-24 20:47 | 41.72038 | -70.58355 | 19918 ft | 261 kts | 246° |
| 2026-04-24 20:48 | 41.70978 | -70.60289 | 19917 ft | 261 kts | 246° |
| 2026-04-24 20:48 | 41.69900 | -70.62251 | 19918 ft | 261 kts | 246° |
| 2026-04-24 20:48 | 41.68825 | -70.64209 | 19917 ft | 261 kts | 246° |
| 2026-04-24 20:48 | 41.67749 | -70.66168 | 19916 ft | 261 kts | 246° |
| 2026-04-24 20:49 | 41.66672 | -70.68127 | 19915 ft | 261 kts | 246° |
| 2026-04-24 20:49 | 41.65597 | -70.70082 | 19915 ft | 261 kts | 246° |
| 2026-04-24 20:49 | 41.64518 | -70.72042 | 19914 ft | 261 kts | 246° |
| 2026-04-24 20:49 | 41.63439 | -70.74002 | 19913 ft | 261 kts | 246° |
| 2026-04-24 20:50 | 41.62361 | -70.75957 | 19897 ft | 261 kts | 246° |
| 2026-04-24 20:50 | 41.61284 | -70.77911 | 19897 ft | 261 kts | 246° |
| 2026-04-24 20:50 | 41.60570 | -70.79205 | 19897 ft | 261 kts | 246° |
| 2026-04-24 20:50 | 41.59142 | -70.81790 | 19900 ft | 260 kts | 246° |
| 2026-04-24 20:51 | 41.58068 | -70.83732 | 19896 ft | 259 kts | 246° |
| 2026-04-24 20:51 | 41.56997 | -70.85673 | 19896 ft | 259 kts | 246° |
| 2026-04-24 20:51 | 41.55924 | -70.87613 | 19897 ft | 259 kts | 246° |
| 2026-04-24 20:51 | 41.55215 | -70.88893 | 19904 ft | 258 kts | 245° |
| 2026-04-24 20:52 | 41.54147 | -70.90822 | 19900 ft | 259 kts | 244° |
| 2026-04-24 20:52 | 41.53072 | -70.92761 | 19905 ft | 260 kts | 244° |
| 2026-04-24 20:52 | 41.51995 | -70.94704 | 19897 ft | 260 kts | 244° |
| 2026-04-24 20:52 | 41.50913 | -70.96654 | 19904 ft | 261 kts | 244° |
| 2026-04-24 20:53 | 41.49831 | -70.98602 | 19906 ft | 261 kts | 244° |
| 2026-04-24 20:53 | 41.48748 | -71.00551 | 19903 ft | 261 kts | 244° |
| 2026-04-24 20:53 | 41.47665 | -71.02499 | 19908 ft | 261 kts | 244° |
| 2026-04-24 20:53 | 41.46595 | -71.04423 | 19904 ft | 261 kts | 244° |
| 2026-04-24 20:54 | 41.45508 | -71.06376 | 19905 ft | 261 kts | 244° |
| 2026-04-24 20:54 | 41.44423 | -71.08324 | 19910 ft | 262 kts | 244° |
| 2026-04-24 20:54 | 41.43338 | -71.10269 | 19907 ft | 260 kts | 244° |
| 2026-04-24 20:54 | 41.42257 | -71.12206 | 19908 ft | 260 kts | 244° |
| 2026-04-24 20:55 | 41.41178 | -71.14142 | 19911 ft | 260 kts | 244° |
| 2026-04-24 20:55 | 41.40094 | -71.16083 | 19911 ft | 261 kts | 244° |
| 2026-04-24 20:55 | 41.39011 | -71.18022 | 19911 ft | 261 kts | 244° |
| 2026-04-24 20:55 | 41.37927 | -71.19959 | 19911 ft | 261 kts | 244° |
| 2026-04-24 20:56 | 41.36843 | -71.21897 | 19911 ft | 261 kts | 244° |
| 2026-04-24 20:56 | 41.35771 | -71.23813 | 19911 ft | 261 kts | 244° |
| 2026-04-24 20:56 | 41.34687 | -71.25748 | 19914 ft | 261 kts | 244° |
| 2026-04-24 20:56 | 41.33601 | -71.27684 | 19915 ft | 261 kts | 244° |
| 2026-04-24 20:57 | 41.32515 | -71.29621 | 19916 ft | 261 kts | 244° |
| 2026-04-24 20:57 | 41.31428 | -71.31557 | 19919 ft | 261 kts | 244° |
| 2026-04-24 20:57 | 41.30344 | -71.33487 | 19920 ft | 261 kts | 244° |
| 2026-04-24 20:57 | 41.29257 | -71.35422 | 19920 ft | 261 kts | 244° |
| 2026-04-24 20:58 | 41.28171 | -71.37354 | 19921 ft | 261 kts | 244° |
| 2026-04-24 20:58 | 41.27098 | -71.39260 | 19922 ft | 261 kts | 244° |
| 2026-04-24 20:58 | 41.26009 | -71.41194 | 19923 ft | 261 kts | 244° |
| 2026-04-24 20:58 | 41.24921 | -71.43126 | 19925 ft | 261 kts | 244° |
| 2026-04-24 20:59 | 41.23832 | -71.45057 | 19925 ft | 261 kts | 244° |
| 2026-04-24 20:59 | 41.22742 | -71.46989 | 19926 ft | 261 kts | 244° |
| 2026-04-24 20:59 | 41.21651 | -71.48923 | 19926 ft | 261 kts | 244° |
| 2026-04-24 20:59 | 41.20563 | -71.50849 | 19926 ft | 261 kts | 244° |
| 2026-04-24 21:00 | 41.19473 | -71.52778 | 19927 ft | 261 kts | 244° |
| 2026-04-24 21:00 | 41.18398 | -71.54681 | 19927 ft | 261 kts | 244° |
| 2026-04-24 21:00 | 41.17306 | -71.56609 | 19922 ft | 260 kts | 245° |
| 2026-04-24 21:00 | 41.16062 | -71.58404 | 19925 ft | 270 kts | 233° |
| 2026-04-24 21:01 | 41.14607 | -71.60010 | 19938 ft | 272 kts | 231° |
| 2026-04-24 21:01 | 41.13139 | -71.61591 | 19939 ft | 272 kts | 231° |
| 2026-04-24 21:01 | 41.11684 | -71.63196 | 19936 ft | 270 kts | 234° |
| 2026-04-24 21:01 | 41.10245 | -71.64806 | 19937 ft | 270 kts | 234° |
| 2026-04-24 21:02 | 41.08805 | -71.66409 | 19936 ft | 270 kts | 234° |
| 2026-04-24 21:02 | 41.07362 | -71.68003 | 19936 ft | 270 kts | 234° |
| 2026-04-24 21:02 | 41.05916 | -71.69598 | 19935 ft | 270 kts | 234° |
| 2026-04-24 21:02 | 41.04475 | -71.71191 | 19934 ft | 270 kts | 234° |
| 2026-04-24 21:03 | 41.03033 | -71.72784 | 19939 ft | 270 kts | 234° |
| 2026-04-24 21:03 | 41.01592 | -71.74375 | 19939 ft | 270 kts | 234° |
| 2026-04-24 21:03 | 41.00151 | -71.75965 | 19940 ft | 270 kts | 234° |
| 2026-04-24 21:03 | 40.98711 | -71.77553 | 19940 ft | 269 kts | 234° |
| 2026-04-24 21:04 | 40.97456 | -71.79255 | 19941 ft | 253 kts | 248° |
| 2026-04-24 21:04 | 40.96645 | -71.81229 | 19941 ft | 237 kts | 262° |
| 2026-04-24 21:04 | 40.96256 | -71.83280 | 19941 ft | 225 kts | 274° |
| 2026-04-24 21:04 | 40.96073 | -71.85330 | 19942 ft | 224 kts | 275° |
| 2026-04-24 21:05 | 40.95877 | -71.87407 | 19942 ft | 225 kts | 274° |
| 2026-04-24 21:05 | 40.95677 | -71.89411 | 19944 ft | 221 kts | 275° |
| 2026-04-24 21:05 | 40.95481 | -71.91426 | 19931 ft | 219 kts | 276° |
| 2026-04-24 21:05 | 40.95290 | -71.93409 | 19943 ft | 216 kts | 276° |
| 2026-04-24 21:06 | 40.95099 | -71.95376 | 19941 ft | 215 kts | 276° |
| 2026-04-24 21:06 | 40.94907 | -71.97339 | 19941 ft | 215 kts | 276° |
| 2026-04-24 21:06 | 40.94716 | -71.99292 | 19940 ft | 214 kts | 276° |
| 2026-04-24 21:06 | 40.94524 | -72.01248 | 19938 ft | 214 kts | 276° |
| 2026-04-24 21:07 | 40.94333 | -72.03222 | 19742 ft | 219 kts | 276° |
| 2026-04-24 21:07 | 40.94137 | -72.05230 | 19500 ft | 221 kts | 276° |
| 2026-04-24 21:07 | 40.93935 | -72.07251 | 19259 ft | 222 kts | 276° |
| 2026-04-24 21:07 | 40.93734 | -72.09272 | 19020 ft | 222 kts | 276° |
| 2026-04-24 21:08 | 40.93534 | -72.11293 | 18787 ft | 221 kts | 275° |
| 2026-04-24 21:08 | 40.93333 | -72.13311 | 18551 ft | 221 kts | 275° |
| 2026-04-24 21:08 | 40.93133 | -72.15323 | 18318 ft | 220 kts | 275° |
| 2026-04-24 21:08 | 40.92934 | -72.17325 | 18062 ft | 220 kts | 275° |
| 2026-04-24 21:09 | 40.92734 | -72.19324 | 17800 ft | 219 kts | 275° |
| 2026-04-24 21:09 | 40.92537 | -72.21297 | 17527 ft | 219 kts | 275° |
| 2026-04-24 21:09 | 40.92338 | -72.23285 | 17265 ft | 218 kts | 275° |
| 2026-04-24 21:09 | 40.92138 | -72.25274 | 17003 ft | 218 kts | 275° |
| 2026-04-24 21:10 | 40.91940 | -72.27262 | 16640 ft | 220 kts | 275° |
| 2026-04-24 21:10 | 40.91738 | -72.29283 | 16282 ft | 222 kts | 275° |
| 2026-04-24 21:10 | 40.91553 | -72.31308 | 15927 ft | 218 kts | 278° |
| 2026-04-24 21:10 | 40.91586 | -72.33290 | 15579 ft | 215 kts | 283° |
| 2026-04-24 21:11 | 40.91660 | -72.35264 | 15235 ft | 215 kts | 283° |
| 2026-04-24 21:11 | 40.91727 | -72.37246 | 14893 ft | 216 kts | 282° |
| 2026-04-24 21:11 | 40.91786 | -72.39224 | 14555 ft | 215 kts | 282° |
| 2026-04-24 21:11 | 40.91845 | -72.41204 | 14221 ft | 216 kts | 282° |
| 2026-04-24 21:12 | 40.91905 | -72.43165 | 13896 ft | 216 kts | 282° |
| 2026-04-24 21:12 | 40.91965 | -72.45150 | 13544 ft | 216 kts | 282° |
| 2026-04-24 21:12 | 40.92025 | -72.47144 | 13170 ft | 217 kts | 282° |
| 2026-04-24 21:12 | 40.92085 | -72.49137 | 12803 ft | 217 kts | 282° |
| 2026-04-24 21:13 | 40.92144 | -72.51140 | 12441 ft | 219 kts | 282° |
| 2026-04-24 21:13 | 40.92204 | -72.53158 | 12081 ft | 220 kts | 281° |
| 2026-04-24 21:13 | 40.92262 | -72.55174 | 11727 ft | 220 kts | 281° |
| 2026-04-24 21:13 | 40.92321 | -72.57193 | 11377 ft | 219 kts | 281° |
| 2026-04-24 21:14 | 40.92378 | -72.59172 | 11036 ft | 218 kts | 281° |
| 2026-04-24 21:14 | 40.92436 | -72.61175 | 10671 ft | 217 kts | 281° |
| 2026-04-24 21:14 | 40.92493 | -72.63165 | 10334 ft | 217 kts | 281° |
| 2026-04-24 21:14 | 40.92550 | -72.65157 | 9999 ft | 217 kts | 281° |
| 2026-04-24 21:15 | 40.92607 | -72.67157 | 9642 ft | 218 kts | 281° |
| 2026-04-24 21:15 | 40.92664 | -72.69170 | 9267 ft | 219 kts | 280° |
| 2026-04-24 21:15 | 40.92721 | -72.71197 | 8894 ft | 221 kts | 279° |
| 2026-04-24 21:15 | 40.92778 | -72.73233 | 8527 ft | 222 kts | 278° |
| 2026-04-24 21:16 | 40.92834 | -72.75253 | 8172 ft | 224 kts | 278° |
| 2026-04-24 21:16 | 40.92891 | -72.77338 | 7824 ft | 224 kts | 277° |
| 2026-04-24 21:16 | 40.92946 | -72.79380 | 7522 ft | 224 kts | 277° |
| 2026-04-24 21:16 | 40.92935 | -72.81443 | 7219 ft | 225 kts | 274° |
| 2026-04-24 21:17 | 40.92926 | -72.83520 | 6920 ft | 225 kts | 274° |
| 2026-04-24 21:17 | 40.92923 | -72.85586 | 6623 ft | 225 kts | 273° |
| 2026-04-24 21:17 | 40.92910 | -72.87652 | 6329 ft | 225 kts | 272° |
| 2026-04-24 21:17 | 40.92991 | -72.89008 | 6116 ft | 223 kts | 282° |
| 2026-04-24 21:18 | 40.93801 | -72.91503 | 5688 ft | 222 kts | 307° |
| 2026-04-24 21:18 | 40.94898 | -72.92922 | 5373 ft | 222 kts | 324° |
| 2026-04-24 21:18 | 40.96271 | -72.93783 | 5065 ft | 223 kts | 342° |
| 2026-04-24 21:18 | 40.97816 | -72.94016 | 4754 ft | 225 kts | 1° |
| 2026-04-24 21:19 | 40.99353 | -72.93574 | 4435 ft | 228 kts | 19° |
| 2026-04-24 21:19 | 41.00719 | -72.92494 | 4110 ft | 231 kts | 38° |
| 2026-04-24 21:19 | 41.01775 | -72.90877 | 3798 ft | 234 kts | 56° |
| 2026-04-24 21:19 | 41.02407 | -72.88886 | 3485 ft | 236 kts | 74° |
| 2026-04-24 21:20 | 41.02176 | -72.84587 | 2864 ft | 239 kts | 110° |
| 2026-04-24 21:20 | 41.01331 | -72.82708 | 2584 ft | 237 kts | 129° |
| 2026-04-24 21:20 | 41.00102 | -72.81280 | 2324 ft | 235 kts | 147° |
| 2026-04-24 21:21 | 40.98614 | -72.80434 | 2064 ft | 233 kts | 166° |
| 2026-04-24 21:21 | 40.97038 | -72.80273 | 2036 ft | 222 kts | 185° |
| 2026-04-24 21:21 | 40.95572 | -72.80786 | 2030 ft | 215 kts | 205° |
| 2026-04-24 21:21 | 40.94361 | -72.81892 | 2026 ft | 210 kts | 224° |
| 2026-04-24 21:22 | 40.93400 | -72.83319 | 2026 ft | 207 kts | 234° |
| 2026-04-24 21:22 | 40.92738 | -72.84962 | 2025 ft | 205 kts | 251° |
| 2026-04-24 21:22 | 40.92515 | -72.86809 | 2025 ft | 204 kts | 271° |
| 2026-04-24 21:22 | 40.92641 | -72.88063 | 2027 ft | 203 kts | 282° |
| 2026-04-24 21:23 | 40.92900 | -72.90495 | 2028 ft | 202 kts | 272° |
| 2026-04-24 21:23 | 40.92897 | -72.92355 | 2028 ft | 202 kts | 269° |
| 2026-04-24 21:23 | 40.92863 | -72.94211 | 2028 ft | 202 kts | 269° |
| 2026-04-24 21:23 | 40.92841 | -72.96064 | 2026 ft | 201 kts | 271° |
| 2026-04-24 21:24 | 40.92833 | -72.97911 | 2024 ft | 200 kts | 271° |
| 2026-04-24 21:24 | 40.92824 | -72.99750 | 2023 ft | 199 kts | 271° |
| 2026-04-24 21:24 | 40.92811 | -73.01559 | 2012 ft | 199 kts | 270° |
| 2026-04-24 21:24 | 40.92794 | -73.03412 | 2013 ft | 198 kts | 270° |
| 2026-04-24 21:25 | 40.92778 | -73.05236 | 2019 ft | 199 kts | 271° |
| 2026-04-24 21:25 | 40.92762 | -73.07050 | 2015 ft | 200 kts | 270° |
| 2026-04-24 21:25 | 40.92745 | -73.08891 | 2011 ft | 199 kts | 270° |
| 2026-04-24 21:25 | 40.92730 | -73.10719 | 2009 ft | 198 kts | 270° |
| 2026-04-24 21:26 | 40.92714 | -73.12541 | 2010 ft | 198 kts | 270° |
| 2026-04-24 21:26 | 40.92698 | -73.14363 | 2006 ft | 198 kts | 270° |
| 2026-04-24 21:26 | 40.92680 | -73.16189 | 2005 ft | 199 kts | 271° |
| 2026-04-24 21:26 | 40.92663 | -73.18025 | 2007 ft | 200 kts | 270° |
| 2026-04-24 21:27 | 40.92646 | -73.19866 | 2003 ft | 200 kts | 270° |
| 2026-04-24 21:27 | 40.92628 | -73.21708 | 2002 ft | 200 kts | 270° |
| 2026-04-24 21:27 | 40.92610 | -73.23545 | 1999 ft | 199 kts | 270° |
| 2026-04-24 21:27 | 40.92598 | -73.24755 | 1999 ft | 199 kts | 270° |
| 2026-04-24 21:28 | 40.92572 | -73.27206 | 1998 ft | 199 kts | 269° |
| 2026-04-24 21:28 | 40.92552 | -73.29039 | 1997 ft | 199 kts | 270° |
| 2026-04-24 21:28 | 40.92533 | -73.30880 | 1999 ft | 200 kts | 272° |
| 2026-04-24 21:28 | 40.92656 | -73.32696 | 1995 ft | 198 kts | 284° |
| 2026-04-24 21:29 | 40.93075 | -73.34428 | 1994 ft | 197 kts | 297° |
| 2026-04-24 21:29 | 40.93750 | -73.35979 | 1993 ft | 191 kts | 308° |
| 2026-04-24 21:29 | 40.94606 | -73.37238 | 1984 ft | 182 kts | 321° |
| 2026-04-24 21:29 | 40.95684 | -73.38023 | 1984 ft | 175 kts | 343° |
| 2026-04-24 21:30 | 40.96877 | -73.38146 | 1985 ft | 172 kts | 7° |
| 2026-04-24 21:30 | 40.97989 | -73.37597 | 1991 ft | 172 kts | 30° |
| 2026-04-24 21:30 | 40.98826 | -73.36474 | 1992 ft | 174 kts | 53° |
| 2026-04-24 21:30 | 40.99249 | -73.34963 | 1994 ft | 179 kts | 76° |
| 2026-04-24 21:31 | 40.99170 | -73.33310 | 1996 ft | 184 kts | 99° |
| 2026-04-24 21:31 | 40.98591 | -73.31780 | 1994 ft | 189 kts | 124° |
| 2026-04-24 21:31 | 40.97589 | -73.30640 | 1995 ft | 191 kts | 148° |
| 2026-04-24 21:31 | 40.96340 | -73.30065 | 1997 ft | 190 kts | 172° |
| 2026-04-24 21:32 | 40.95094 | -73.29595 | 1997 ft | 183 kts | 160° |
| 2026-04-24 21:32 | 40.94008 | -73.28821 | 1997 ft | 178 kts | 143° |
| 2026-04-24 21:32 | 40.93095 | -73.27728 | 1995 ft | 175 kts | 135° |
| 2026-04-24 21:32 | 40.92253 | -73.26584 | 1995 ft | 172 kts | 133° |
| 2026-04-24 21:33 | 40.91418 | -73.25459 | 1994 ft | 171 kts | 136° |
| 2026-04-24 21:33 | 40.90858 | -73.24734 | 2001 ft | 171 kts | 136° |
| 2026-04-24 21:33 | 40.89693 | -73.23212 | 1809 ft | 179 kts | 136° |
| 2026-04-24 21:33 | 40.88805 | -73.22042 | 1687 ft | 181 kts | 136° |
| 2026-04-24 21:34 | 40.87937 | -73.20896 | 1604 ft | 162 kts | 136° |
| 2026-04-24 21:34 | 40.87206 | -73.19930 | 1596 ft | 138 kts | 136° |
| 2026-04-24 21:34 | 40.86558 | -73.19073 | 1596 ft | 126 kts | 136° |
| 2026-04-24 21:34 | 40.85964 | -73.18288 | 1607 ft | 115 kts | 137° |
| 2026-04-24 21:35 | 40.85415 | -73.17557 | 1582 ft | 117 kts | 136° |
| 2026-04-24 21:35 | 40.84853 | -73.16730 | 1508 ft | 123 kts | 133° |
| 2026-04-24 21:35 | 40.84256 | -73.15896 | 1370 ft | 127 kts | 136° |
| 2026-04-24 21:35 | 40.83642 | -73.15088 | 1217 ft | 118 kts | 140° |
| 2026-04-24 21:36 | 40.83058 | -73.14385 | 1008 ft | 111 kts | 138° |
| 2026-04-24 21:36 | 40.82501 | -73.13705 | 833 ft | 105 kts | 138° |
| 2026-04-24 21:36 | 40.82174 | -73.13299 | 755 ft | 92 kts | 136° |
| 2026-04-24 21:36 | 40.81741 | -73.12720 | 600 ft | 87 kts | 137° |
| 2026-04-24 21:37 | 40.81308 | -73.12147 | 460 ft | 87 kts | 137° |
| 2026-04-24 21:37 | 40.80885 | -73.11602 | 315 ft | 83 kts | 137° |
| 2026-04-24 21:37 | 40.80486 | -73.11065 | 200 ft | 81 kts | 134° |
| 2026-04-24 21:37 | 40.80099 | -73.10556 | 111 ft | 72 kts | 137° |
| 2026-04-24 21:38 | 40.79795 | -73.10167 | 93 ft | 48 kts | 136° |
| 2026-04-24 21:38 | 40.79723 | -73.10074 | 92 ft | 10 kts | 134° |
| 2026-04-24 21:38 | 40.79640 | -73.10026 | 90 ft | 16 kts | 216° |
| 2026-04-24 21:38 | 40.79551 | -73.10088 | 91 ft | 14 kts | 166° |
| 2026-04-24 21:39 | 40.79460 | -73.10095 | 91 ft | 13 kts | 186° |
| 2026-04-24 21:39 | 40.79371 | -73.10097 | 91 ft | 13 kts | 179° |
| 2026-04-24 21:39 | 40.79282 | -73.10097 | 91 ft | 13 kts | 180° |
| 2026-04-24 21:39 | 40.79192 | -73.10094 | 91 ft | 13 kts | 180° |
| 2026-04-24 21:40 | 40.79103 | -73.10096 | 91 ft | 12 kts | 179° |
| 2026-04-24 21:40 | 40.79048 | -73.10112 | 91 ft | 8 kts | 246° |
| 2026-04-24 21:40 | 40.79030 | -73.10165 | 93 ft | 8 kts | 168° |
| 2026-04-24 21:40 | 40.79022 | -73.10143 | 92 ft | 0 kts | 92° |